Time,TemperatureF,DewpointF,PressureIn,WindDirection,WindDirectionDegrees,WindSpeedMPH,WindSpeedGustMPH,Humidity,HourlyPrecipIn,Conditions,Clouds,dailyrainin,SoftwareType,DateUTC
2013-10-10 00:00:00,44.6,43.5,30.28,SSE,153,0.0,0.0,96,0.00,,,0.00,Wunderground v.1.15,2013-10-10 04:00:00,
2013-10-10 00:30:00,44.0,42.9,30.28,NE,40,0.0,0.0,96,0.00,,,0.00,Wunderground v.1.15,2013-10-10 04:30:00,
2013-10-10 01:00:00,43.2,42.1,30.27,NE,41,0.0,0.0,96,0.00,,,0.00,Wunderground v.1.15,2013-10-10 05:00:00,
2013-10-10 01:30:00,43.0,42.2,30.27,NE,41,0.0,0.0,97,0.00,,,0.00,Wunderground v.1.15,2013-10-10 05:30:00,
2013-10-10 02:00:00,45.1,44.6,30.27,South,185,1.0,1.0,98,0.00,,,0.00,Wunderground v.1.15,2013-10-10 06:00:00,
2013-10-10 02:30:00,46.1,45.0,30.27,South,172,1.0,1.0,96,0.00,,,0.00,Wunderground v.1.15,2013-10-10 06:30:00,
2013-10-10 03:00:00,44.9,43.3,30.26,SSE,160,0.0,0.0,94,0.00,,,0.00,Wunderground v.1.15,2013-10-10 07:00:00,
2013-10-10 03:30:00,44.8,43.5,30.25,South,170,1.0,2.0,95,0.00,,,0.00,Wunderground v.1.15,2013-10-10 07:30:00,
2013-10-10 04:00:00,44.9,43.0,30.25,SSE,160,1.0,1.0,93,0.00,,,0.00,Wunderground v.1.15,2013-10-10 08:00:00,
2013-10-10 04:30:00,43.0,41.1,30.24,SE,142,0.0,0.0,93,0.00,,,0.00,Wunderground v.1.15,2013-10-10 08:30:00,
2013-10-10 05:00:00,43.0,41.4,30.24,SSE,161,1.0,1.0,94,0.00,,,0.00,Wunderground v.1.15,2013-10-10 09:00:00,
2013-10-10 05:30:00,42.0,40.7,30.25,SE,143,0.0,0.0,95,0.00,,,0.01,Wunderground v.1.15,2013-10-10 09:30:00,
2013-10-10 06:00:00,40.1,39.1,30.25,SE,143,0.0,0.0,96,0.00,,,0.01,Wunderground v.1.15,2013-10-10 10:00:00,
2013-10-10 06:30:00,40.2,39.2,30.25,SE,143,0.0,0.0,96,0.00,,,0.01,Wunderground v.1.15,2013-10-10 10:30:00,
2013-10-10 07:00:00,39.0,38.0,30.26,SE,143,0.0,0.0,96,0.00,,,0.01,Wunderground v.1.15,2013-10-10 11:00:00,
2013-10-10 07:30:00,39.1,38.3,30.27,SE,143,0.0,0.0,97,0.00,,,0.01,Wunderground v.1.15,2013-10-10 11:30:00,
2013-10-10 08:00:00,40.0,39.2,30.28,SE,143,0.0,0.0,97,0.00,,,0.01,Wunderground v.1.15,2013-10-10 12:00:00,
2013-10-10 08:30:00,42.3,41.8,30.28,SE,143,0.0,0.0,98,0.00,,,0.01,Wunderground v.1.15,2013-10-10 12:30:00,
2013-10-10 09:00:00,45.1,44.6,30.28,SE,143,0.0,0.0,98,0.00,,,0.01,Wunderground v.1.15,2013-10-10 13:00:00,
2013-10-10 09:30:00,47.5,46.7,30.28,SE,138,1.0,3.0,97,0.00,,,0.01,Wunderground v.1.15,2013-10-10 13:30:00,
2013-10-10 10:00:00,50.3,48.4,30.29,South,172,2.0,3.0,93,0.00,,,0.01,Wunderground v.1.15,2013-10-10 14:00:00,
2013-10-10 10:30:00,51.7,48.6,30.28,ESE,110,3.0,4.0,89,0.00,,,0.01,Wunderground v.1.15,2013-10-10 14:30:00,
2013-10-10 11:00:00,52.8,49.6,30.28,ESE,123,3.0,3.0,89,0.00,,,0.01,Wunderground v.1.15,2013-10-10 15:00:00,
2013-10-10 11:30:00,54.0,50.2,30.27,ESE,112,1.0,1.0,87,0.00,,,0.01,Wunderground v.1.15,2013-10-10 15:30:00,
2013-10-10 12:00:00,55.1,50.0,30.27,SE,132,2.0,2.0,83,0.00,,,0.01,Wunderground v.1.15,2013-10-10 16:00:00,
2013-10-10 12:30:00,57.2,51.1,30.27,SSW,193,1.0,1.0,80,0.00,,,0.01,Wunderground v.1.15,2013-10-10 16:30:00,
2013-10-10 13:00:00,59.9,52.0,30.25,ENE,68,1.0,2.0,75,0.00,,,0.01,Wunderground v.1.15,2013-10-10 17:00:00,
2013-10-10 13:30:00,61.2,50.2,30.23,North,352,1.0,1.0,67,0.00,,,0.01,Wunderground v.1.15,2013-10-10 17:30:00,
2013-10-10 14:00:00,61.6,49.7,30.22,ENE,71,2.0,2.0,65,0.00,,,0.01,Wunderground v.1.15,2013-10-10 18:00:00,
2013-10-10 14:30:00,62.6,49.4,30.20,NE,41,0.0,2.0,62,0.00,,,0.01,Wunderground v.1.15,2013-10-10 18:30:00,
2013-10-10 15:00:00,62.4,48.8,30.19,North,9,1.0,2.0,61,0.00,,,0.01,Wunderground v.1.15,2013-10-10 19:00:00,
2013-10-10 15:30:00,62.3,50.0,30.19,North,9,2.0,2.0,64,0.00,,,0.01,Wunderground v.1.15,2013-10-10 19:30:00,
2013-10-10 16:00:00,62.2,50.7,30.19,NNE,15,1.0,1.0,66,0.00,,,0.01,Wunderground v.1.15,2013-10-10 20:00:00,
2013-10-10 16:30:00,61.8,50.7,30.19,NE,39,1.0,1.0,67,0.00,,,0.01,Wunderground v.1.15,2013-10-10 20:30:00,
2013-10-10 17:00:00,61.6,50.9,30.19,NE,53,2.0,2.0,68,0.00,,,0.01,Wunderground v.1.15,2013-10-10 21:00:00,
2013-10-10 17:30:00,59.9,50.5,30.19,NE,44,1.0,1.0,71,0.00,,,0.01,Wunderground v.1.15,2013-10-10 21:30:00,
2013-10-10 18:00:00,59.5,50.8,30.18,NE,41,1.0,1.0,73,0.00,,,0.01,Wunderground v.1.15,2013-10-10 22:00:00,
2013-10-10 18:30:00,56.5,49.7,30.19,ENE,65,2.0,2.0,78,0.00,,,0.01,Wunderground v.1.15,2013-10-10 22:30:00,
2013-10-10 19:00:00,53.8,48.4,30.19,North,8,0.0,0.0,82,0.00,,,0.01,Wunderground v.1.15,2013-10-10 23:00:00,
2013-10-10 19:30:00,52.9,48.5,30.18,NNE,13,0.0,0.0,85,0.00,,,0.01,Wunderground v.1.15,2013-10-10 23:30:00,
2013-10-10 20:00:00,49.9,47.4,30.18,NNE,13,0.0,0.0,91,0.00,,,0.01,Wunderground v.1.15,2013-10-11 00:00:00,
2013-10-10 20:30:00,48.7,46.8,30.17,North,11,0.0,0.0,93,0.00,,,0.01,Wunderground v.1.15,2013-10-11 00:30:00,
2013-10-10 21:00:00,48.3,46.7,30.17,East,93,1.0,1.0,94,0.00,,,0.01,Wunderground v.1.15,2013-10-11 01:00:00,
2013-10-10 21:30:00,46.5,45.1,30.17,East,94,0.0,0.0,95,0.00,,,0.01,Wunderground v.1.15,2013-10-11 01:30:00,
2013-10-10 22:00:00,45.5,44.4,30.17,East,94,0.0,0.0,96,0.00,,,0.01,Wunderground v.1.15,2013-10-11 02:00:00,
2013-10-10 23:00:00,44.9,44.1,30.17,SE,139,0.0,0.0,97,0.00,,,0.01,Wunderground v.1.15,2013-10-11 03:00:00,
2013-10-10 23:30:00,44.0,42.9,30.16,SE,140,0.0,0.0,96,0.00,,,0.01,Wunderground v.1.15,2013-10-11 03:30:00,